createdAt,value
2023-03-01T00:03:25.100Z,72.74
2023-03-01T00:08:28.229Z,72.48
2023-03-01T00:13:36.496Z,72.51
2023-03-01T00:18:38.319Z,72.31
2023-03-01T00:23:40.727Z,71.90
2023-03-01T00:28:42.961Z,71.70
2023-03-01T00:33:45.602Z,70.05
2023-03-01T00:38:47.480Z,70.88
2023-03-01T00:43:50.570Z,70.44
2023-03-01T00:48:55.190Z,69.96
2023-03-01T00:54:00.376Z,70.58
2023-03-01T00:59:02.245Z,71.65
2023-03-01T01:04:06.170Z,71.97
2023-03-01T01:09:08.343Z,70.58
2023-03-01T01:14:10.110Z,70.59
2023-03-01T01:19:12.343Z,69.14
2023-03-01T01:24:14.160Z,67.38
2023-03-01T01:29:15.988Z,69.06
2023-03-01T01:34:19.081Z,69.77
2023-03-01T01:39:21.445Z,70.77
2023-03-01T01:44:24.921Z,70.55
2023-03-01T01:49:36.447Z,71.46
2023-03-01T01:54:38.197Z,72.12
2023-03-01T01:59:41.550Z,72.90
2023-03-01T02:04:43.394Z,72.09
2023-03-01T02:09:46.953Z,70.38
2023-03-01T02:14:48.741Z,70.14
2023-03-01T02:20:08.113Z,69.63
2023-03-01T02:25:10.961Z,71.39
2023-03-01T02:30:14.135Z,72.30
2023-03-01T02:35:17.098Z,71.55
2023-03-01T02:40:19.874Z,71.28
2023-03-01T02:45:22.189Z,73.16
2023-03-01T02:50:31.540Z,73.45
2023-03-01T02:55:33.431Z,73.25
2023-03-01T03:00:41.087Z,74.93
2023-03-01T03:05:43.429Z,75.58
2023-03-01T03:10:45.314Z,75.40
2023-03-01T03:15:47.303Z,74.91
2023-03-01T03:20:53.859Z,74.52
2023-03-01T03:25:55.708Z,74.71
2023-03-01T03:30:57.526Z,74.80
2023-03-01T03:35:59.658Z,74.72
2023-03-01T03:41:03.630Z,74.31
2023-03-01T03:46:08.703Z,73.53
2023-03-01T03:51:11.910Z,72.30
2023-03-01T03:56:13.712Z,71.68
2023-03-01T04:01:15.529Z,71.26
2023-03-01T04:06:17.320Z,73.42
2023-03-01T04:11:28.370Z,74.62
2023-03-01T04:16:30.477Z,73.71
2023-03-01T04:21:32.435Z,73.11
2023-03-01T04:26:34.208Z,74.53
2023-03-01T04:31:36.482Z,73.89
2023-03-01T04:36:38.296Z,74.32
2023-03-01T04:41:40.703Z,74.69
2023-03-01T04:46:42.496Z,74.26
2023-03-01T04:51:44.311Z,73.21
2023-03-01T04:56:46.031Z,72.96
2023-03-01T05:13:46.771Z,71.91
2023-03-01T05:18:48.501Z,71.81
2023-03-01T05:23:50.713Z,71.99
2023-03-01T05:28:52.378Z,71.75
2023-03-01T05:33:54.000Z,70.34
2023-03-01T05:38:56.682Z,69.95
2023-03-01T05:43:58.353Z,70.64
2023-03-01T05:49:01.030Z,69.84
2023-03-01T05:54:02.883Z,68.51
2023-03-01T05:59:08.421Z,69.05
2023-03-01T06:04:10.444Z,69.87
2023-03-01T06:09:12.247Z,72.19
2023-03-01T06:14:15.667Z,72.07
2023-03-01T06:19:17.629Z,72.29
2023-03-01T06:24:19.224Z,72.47
2023-03-01T06:29:20.990Z,72.36
2023-03-01T06:34:22.749Z,72.59
2023-03-01T06:39:24.522Z,72.71
2023-03-01T06:44:26.905Z,72.44
2023-03-01T06:49:28.578Z,72.42
2023-03-01T06:54:30.222Z,71.41
2023-03-01T06:59:32.460Z,71.42
2023-03-01T07:04:34.182Z,71.30
2023-03-01T07:09:35.901Z,69.32
2023-03-01T07:14:37.513Z,68.79
2023-03-01T07:19:39.249Z,68.72
2023-03-01T07:24:42.729Z,68.95
2023-03-01T07:29:44.478Z,69.45
2023-03-01T07:34:46.142Z,67.73
2023-03-01T07:39:47.825Z,68.04
2023-03-01T07:44:49.553Z,68.16
2023-03-01T07:49:51.174Z,65.91
2023-03-01T07:54:52.861Z,63.89
2023-03-01T07:59:54.497Z,66.35
2023-03-01T08:04:56.224Z,65.80
2023-03-01T08:09:57.909Z,64.95
2023-03-01T08:14:59.714Z,65.43
2023-03-01T08:20:01.390Z,65.30
2023-03-01T08:25:03.220Z,62.04
2023-03-01T08:30:05.507Z,62.01
2023-03-01T08:35:08.680Z,61.47
2023-03-01T08:40:11.095Z,62.80
2023-03-01T08:45:15.160Z,63.51
2023-03-01T08:50:16.921Z,63.89
2023-03-01T08:55:18.786Z,62.11
2023-03-01T09:00:20.871Z,57.74
2023-03-01T09:05:22.650Z,56.69
2023-03-01T09:10:24.492Z,60.28
2023-03-01T09:15:26.250Z,64.07
2023-03-01T09:20:27.932Z,56.37
2023-03-01T09:25:29.665Z,55.16
2023-03-01T09:30:31.271Z,59.50
2023-03-01T09:35:32.926Z,61.17
2023-03-01T09:40:34.577Z,56.86
2023-03-01T09:45:39.302Z,54.60
2023-03-01T09:50:42.724Z,57.62
2023-03-01T09:55:47.146Z,59.61
2023-03-01T10:00:50.195Z,58.94
2023-03-01T10:06:05.554Z,58.55
2023-03-01T10:11:20.616Z,56.91
2023-03-01T10:16:25.708Z,59.22
2023-03-01T10:21:28.290Z,52.89
2023-03-01T10:26:35.464Z,54.63
2023-03-01T10:31:44.171Z,53.53
2023-03-01T10:36:49.298Z,53.77
2023-03-01T10:42:01.241Z,54.58
2023-03-01T10:47:03.237Z,55.29
2023-03-01T10:52:18.544Z,52.00
2023-03-01T10:57:46.521Z,51.36
2023-03-01T11:02:48.993Z,51.49
2023-03-01T11:07:56.173Z,52.26
2023-03-01T11:13:17.888Z,52.66
2023-03-01T11:18:21.383Z,50.97
2023-03-01T11:23:23.846Z,51.09
2023-03-01T11:28:28.266Z,51.93
2023-03-01T11:33:36.142Z,49.67
2023-03-01T11:38:39.577Z,50.49
2023-03-01T11:43:44.314Z,50.34
2023-03-01T11:48:59.960Z,50.54
2023-03-01T11:54:16.899Z,48.33
2023-03-01T11:59:38.406Z,47.66
2023-03-01T12:04:55.033Z,47.66
2023-03-01T12:10:11.327Z,49.45
2023-03-01T12:15:19.094Z,47.79
2023-03-01T12:20:39.495Z,49.07
2023-03-01T12:25:47.131Z,49.33
2023-03-01T12:31:01.432Z,48.04
2023-03-01T12:36:06.334Z,47.79
2023-03-01T12:41:17.408Z,47.10
2023-03-01T12:46:29.618Z,49.22
2023-03-01T12:51:33.573Z,47.42
2023-03-01T12:56:39.146Z,47.43
2023-03-01T13:01:54.160Z,47.16
2023-03-01T13:06:58.973Z,46.82
2023-03-01T13:12:02.849Z,47.49
2023-03-01T13:17:26.131Z,48.17
2023-03-01T13:22:30.347Z,45.81
2023-03-01T13:27:33.373Z,45.98
2023-03-01T13:32:44.659Z,46.12
2023-03-01T13:37:47.528Z,44.81
2023-03-01T13:43:04.649Z,46.83
2023-03-01T13:48:10.418Z,45.81
2023-03-01T13:53:16.439Z,46.61
2023-03-01T13:58:26.235Z,44.88
2023-03-01T14:03:29.193Z,46.52
2023-03-01T14:08:31.875Z,47.79
2023-03-01T14:13:39.594Z,46.45
2023-03-01T14:18:56.033Z,44.33
2023-03-01T14:23:58.733Z,45.48
2023-03-01T14:29:00.673Z,46.22
2023-03-01T14:34:02.944Z,44.51
2023-03-01T14:39:17.795Z,46.86
2023-03-01T14:44:30.503Z,47.53
2023-03-01T14:49:33.547Z,46.58
2023-03-01T14:54:38.876Z,44.33
2023-03-01T14:59:42.071Z,44.14
2023-03-01T15:04:46.599Z,43.95
2023-03-01T15:09:48.748Z,45.04
2023-03-01T15:15:02.653Z,47.51
2023-03-01T15:20:06.936Z,45.47
2023-03-01T15:25:15.400Z,42.01
2023-03-01T15:30:19.710Z,40.04
2023-03-01T15:35:41.587Z,40.35
2023-03-01T15:40:50.536Z,41.51
2023-03-01T15:45:59.220Z,40.27
2023-03-01T15:51:02.544Z,38.53
2023-03-01T15:56:04.494Z,39.37
2023-03-01T16:01:13.835Z,40.22
2023-03-01T16:06:15.675Z,40.69
2023-03-01T16:11:18.940Z,41.89
2023-03-01T16:16:20.889Z,43.23
2023-03-01T16:21:23.864Z,45.42
2023-03-01T16:26:25.599Z,46.15
2023-03-01T16:31:28.227Z,48.36
2023-03-01T16:36:30.374Z,49.47
2023-03-01T16:41:32.875Z,52.37
2023-03-01T16:46:35.136Z,54.62
2023-03-01T16:51:37.329Z,53.98
2023-03-01T16:56:40.674Z,54.28
2023-03-01T17:01:42.587Z,56.00
2023-03-01T17:06:44.401Z,57.32
2023-03-01T17:11:46.151Z,56.71
2023-03-01T17:16:47.991Z,56.98
2023-03-01T17:21:49.828Z,55.50
2023-03-01T17:26:51.680Z,56.64
2023-03-01T17:31:56.698Z,56.38
2023-03-01T17:36:58.572Z,58.49
2023-03-01T17:42:00.692Z,60.87
2023-03-01T17:47:03.972Z,61.10
2023-03-01T17:52:05.843Z,60.75
2023-03-01T17:57:07.793Z,60.29
2023-03-01T18:02:11.093Z,61.31
2023-03-01T18:07:12.897Z,62.13
2023-03-01T18:12:15.070Z,63.18
2023-03-01T18:17:16.814Z,64.52
2023-03-01T18:22:18.934Z,64.77
2023-03-01T18:27:20.732Z,63.55
2023-03-01T18:32:23.709Z,65.07
2023-03-01T18:37:25.644Z,64.96
2023-03-01T18:42:27.463Z,63.70
2023-03-01T18:47:29.329Z,62.02
2023-03-01T18:52:31.347Z,61.20
2023-03-01T18:57:33.190Z,61.59
2023-03-01T19:02:35.079Z,60.52
2023-03-01T19:07:37.107Z,59.99
2023-03-01T19:12:38.839Z,59.10
2023-03-01T19:17:40.637Z,58.93
2023-03-01T19:22:42.418Z,59.61
2023-03-01T19:27:44.190Z,59.13
2023-03-01T19:32:45.960Z,58.43
2023-03-01T19:37:47.750Z,58.66
2023-03-01T19:42:49.605Z,58.86
2023-03-01T19:47:52.277Z,59.08
2023-03-01T19:52:54.162Z,60.12
2023-03-01T19:57:56.027Z,60.06
2023-03-01T20:02:58.229Z,60.32
2023-03-01T20:08:00.207Z,60.68
2023-03-01T20:13:03.219Z,61.42
2023-03-01T20:18:05.095Z,65.83
2023-03-01T20:23:06.871Z,71.04
2023-03-01T20:28:08.645Z,70.46
2023-03-01T20:33:10.640Z,69.61
2023-03-01T20:38:12.773Z,68.55
2023-03-01T20:43:14.579Z,67.11
2023-03-01T20:48:16.352Z,65.47
2023-03-01T20:53:20.255Z,64.70
2023-03-01T20:58:22.187Z,64.50
2023-03-01T21:03:24.077Z,64.37
2023-03-01T21:08:26.035Z,64.83
2023-03-01T21:13:28.230Z,66.03
2023-03-01T21:18:30.790Z,66.73
2023-03-01T21:23:33.886Z,66.68
2023-03-01T21:28:36.127Z,64.84
2023-03-01T21:33:38.544Z,64.85
2023-03-01T21:38:41.890Z,65.10
2023-03-01T21:43:45.065Z,65.52
2023-03-01T21:48:47.569Z,66.28
2023-03-01T21:53:50.678Z,64.20
2023-03-01T21:58:52.966Z,63.59
2023-03-01T22:03:55.934Z,64.67
2023-03-01T22:09:00.342Z,65.37
2023-03-01T22:14:13.588Z,66.75
2023-03-01T22:19:16.846Z,67.07
2023-03-01T22:24:19.839Z,67.64
2023-03-01T22:29:23.994Z,67.64
2023-03-01T22:34:26.434Z,67.51
2023-03-01T22:39:28.221Z,65.67
2023-03-01T22:44:30.671Z,66.48
2023-03-01T22:49:39.919Z,66.57
2023-03-01T22:54:43.303Z,66.90
2023-03-01T22:59:45.115Z,65.35
2023-03-01T23:04:48.516Z,65.77
2023-03-01T23:09:51.182Z,66.75
2023-03-01T23:14:53.106Z,66.88
2023-03-01T23:19:54.895Z,67.04
2023-03-01T23:24:56.713Z,66.55
2023-03-01T23:29:58.550Z,65.99
2023-03-01T23:35:00.391Z,66.40
2023-03-01T23:40:05.924Z,66.97
2023-03-01T23:45:08.954Z,69.25
2023-03-01T23:50:11.203Z,71.17
2023-03-01T23:55:14.544Z,71.85
